sensor_id;sensor_type;location;lat;lon;timestamp;temperature;humidity
49413;DHT22;35493;50.276;9.372;2023-08-06T00:01:00;17.50;84.90
49413;DHT22;35493;50.276;9.372;2023-08-06T00:03:31;17.40;85.00
49413;DHT22;35493;50.276;9.372;2023-08-06T00:06:06;17.40;85.00
49413;DHT22;35493;50.276;9.372;2023-08-06T00:08:37;17.50;85.10
49413;DHT22;35493;50.276;9.372;2023-08-06T00:11:11;17.50;85.10
49413;DHT22;35493;50.276;9.372;2023-08-06T00:13:39;17.50;85.20
49413;DHT22;35493;50.276;9.372;2023-08-06T00:16:11;17.50;85.20
49413;DHT22;35493;50.276;9.372;2023-08-06T00:18:44;17.50;85.20
49413;DHT22;35493;50.276;9.372;2023-08-06T00:21:15;17.50;85.30
49413;DHT22;35493;50.276;9.372;2023-08-06T00:23:46;17.50;85.30
49413;DHT22;35493;50.276;9.372;2023-08-06T00:26:20;17.50;85.10
49413;DHT22;35493;50.276;9.372;2023-08-06T00:28:55;17.60;84.90
49413;DHT22;35493;50.276;9.372;2023-08-06T00:31:24;17.60;84.90
49413;DHT22;35493;50.276;9.372;2023-08-06T00:33:54;17.50;84.90
49413;DHT22;35493;50.276;9.372;2023-08-06T00:36:25;17.40;85.10
49413;DHT22;35493;50.276;9.372;2023-08-06T00:38:54;17.40;85.20
49413;DHT22;35493;50.276;9.372;2023-08-06T00:41:22;17.40;85.30
49413;DHT22;35493;50.276;9.372;2023-08-06T00:43:49;17.40;85.40
49413;DHT22;35493;50.276;9.372;2023-08-06T00:46:18;17.40;85.40
49413;DHT22;35493;50.276;9.372;2023-08-06T00:48:50;17.40;85.50
49413;DHT22;35493;50.276;9.372;2023-08-06T00:51:22;17.40;85.50
49413;DHT22;35493;50.276;9.372;2023-08-06T00:53:55;17.40;85.50
49413;DHT22;35493;50.276;9.372;2023-08-06T00:56:43;17.50;85.40
49413;DHT22;35493;50.276;9.372;2023-08-06T00:59:15;17.40;85.50
49413;DHT22;35493;50.276;9.372;2023-08-06T01:01:43;17.40;85.50
49413;DHT22;35493;50.276;9.372;2023-08-06T01:04:12;17.40;85.70
49413;DHT22;35493;50.276;9.372;2023-08-06T01:06:52;17.30;85.60
49413;DHT22;35493;50.276;9.372;2023-08-06T01:09:29;17.30;85.70
49413;DHT22;35493;50.276;9.372;2023-08-06T01:12:21;17.30;85.50
49413;DHT22;35493;50.276;9.372;2023-08-06T01:15:00;17.40;85.40
49413;DHT22;35493;50.276;9.372;2023-08-06T01:17:29;17.30;85.40
49413;DHT22;35493;50.276;9.372;2023-08-06T01:20:01;17.30;85.60
49413;DHT22;35493;50.276;9.372;2023-08-06T01:22:38;17.20;85.50
49413;DHT22;35493;50.276;9.372;2023-08-06T01:25:15;17.20;85.50
49413;DHT22;35493;50.276;9.372;2023-08-06T01:27:46;17.10;85.60
49413;DHT22;35493;50.276;9.372;2023-08-06T01:30:17;17.10;85.60
49413;DHT22;35493;50.276;9.372;2023-08-06T01:32:53;17.10;85.70
49413;DHT22;35493;50.276;9.372;2023-08-06T01:35:27;17.10;85.80
49413;DHT22;35493;50.276;9.372;2023-08-06T01:37:58;17.10;85.70
49413;DHT22;35493;50.276;9.372;2023-08-06T01:40:29;17.10;85.80
49413;DHT22;35493;50.276;9.372;2023-08-06T01:43:02;17.20;85.70
49413;DHT22;35493;50.276;9.372;2023-08-06T01:45:32;17.20;85.70
49413;DHT22;35493;50.276;9.372;2023-08-06T01:48:03;17.20;85.80
49413;DHT22;35493;50.276;9.372;2023-08-06T01:50:32;17.10;85.80
49413;DHT22;35493;50.276;9.372;2023-08-06T01:53:01;17.10;85.90
49413;DHT22;35493;50.276;9.372;2023-08-06T01:55:30;17.10;86.00
49413;DHT22;35493;50.276;9.372;2023-08-06T01:58:00;17.10;86.20
49413;DHT22;35493;50.276;9.372;2023-08-06T02:00:27;17.10;86.20
49413;DHT22;35493;50.276;9.372;2023-08-06T02:02:56;17.10;86.10
49413;DHT22;35493;50.276;9.372;2023-08-06T02:05:26;17.10;86.00
49413;DHT22;35493;50.276;9.372;2023-08-06T02:07:56;17.00;85.90
49413;DHT22;35493;50.276;9.372;2023-08-06T02:10:25;17.00;86.00
49413;DHT22;35493;50.276;9.372;2023-08-06T02:12:54;16.90;86.00
49413;DHT22;35493;50.276;9.372;2023-08-06T02:15:22;16.90;85.90
49413;DHT22;35493;50.276;9.372;2023-08-06T02:17:50;16.90;85.90
49413;DHT22;35493;50.276;9.372;2023-08-06T02:20:25;16.90;85.90
49413;DHT22;35493;50.276;9.372;2023-08-06T02:22:56;16.90;86.00
49413;DHT22;35493;50.276;9.372;2023-08-06T02:25:34;16.80;86.00
49413;DHT22;35493;50.276;9.372;2023-08-06T02:28:07;16.90;85.90
49413;DHT22;35493;50.276;9.372;2023-08-06T02:30:40;17.00;85.90
49413;DHT22;35493;50.276;9.372;2023-08-06T02:33:25;16.90;85.90
49413;DHT22;35493;50.276;9.372;2023-08-06T02:36:04;16.90;86.00
49413;DHT22;35493;50.276;9.372;2023-08-06T02:38:35;16.90;86.10
49413;DHT22;35493;50.276;9.372;2023-08-06T02:41:07;16.90;86.10
49413;DHT22;35493;50.276;9.372;2023-08-06T02:43:38;16.90;86.30
49413;DHT22;35493;50.276;9.372;2023-08-06T02:46:10;16.90;85.90
49413;DHT22;35493;50.276;9.372;2023-08-06T02:48:44;16.90;86.00
49413;DHT22;35493;50.276;9.372;2023-08-06T02:51:13;16.90;86.10
49413;DHT22;35493;50.276;9.372;2023-08-06T02:53:42;16.90;86.20
49413;DHT22;35493;50.276;9.372;2023-08-06T02:56:22;16.90;86.20
49413;DHT22;35493;50.276;9.372;2023-08-06T02:59:14;16.80;86.20
49413;DHT22;35493;50.276;9.372;2023-08-06T03:02:06;16.90;86.40
49413;DHT22;35493;50.276;9.372;2023-08-06T03:04:56;16.80;86.50
49413;DHT22;35493;50.276;9.372;2023-08-06T03:07:36;16.90;86.40
49413;DHT22;35493;50.276;9.372;2023-08-06T03:10:13;16.80;86.60
49413;DHT22;35493;50.276;9.372;2023-08-06T03:12:48;16.80;86.60
49413;DHT22;35493;50.276;9.372;2023-08-06T03:15:20;16.80;86.60
49413;DHT22;35493;50.276;9.372;2023-08-06T03:17:57;16.80;86.50
49413;DHT22;35493;50.276;9.372;2023-08-06T03:20:30;16.90;86.30
49413;DHT22;35493;50.276;9.372;2023-08-06T03:22:59;16.90;86.20
49413;DHT22;35493;50.276;9.372;2023-08-06T03:25:36;16.90;86.10
49413;DHT22;35493;50.276;9.372;2023-08-06T03:28:10;16.90;86.10
49413;DHT22;35493;50.276;9.372;2023-08-06T03:30:42;16.80;86.30
49413;DHT22;35493;50.276;9.372;2023-08-06T03:33:14;16.80;86.40
49413;DHT22;35493;50.276;9.372;2023-08-06T03:35:49;16.80;86.50
49413;DHT22;35493;50.276;9.372;2023-08-06T03:38:20;16.80;86.50
49413;DHT22;35493;50.276;9.372;2023-08-06T03:40:50;16.80;86.60
49413;DHT22;35493;50.276;9.372;2023-08-06T03:43:26;16.90;86.40
49413;DHT22;35493;50.276;9.372;2023-08-06T03:45:58;16.80;86.50
49413;DHT22;35493;50.276;9.372;2023-08-06T03:48:30;16.80;86.60
49413;DHT22;35493;50.276;9.372;2023-08-06T03:51:08;16.80;86.60
49413;DHT22;35493;50.276;9.372;2023-08-06T03:53:51;16.80;86.50
49413;DHT22;35493;50.276;9.372;2023-08-06T03:56:27;16.80;86.60
49413;DHT22;35493;50.276;9.372;2023-08-06T03:59:07;16.70;86.60
49413;DHT22;35493;50.276;9.372;2023-08-06T04:01:47;16.70;86.50
49413;DHT22;35493;50.276;9.372;2023-08-06T04:04:23;16.70;86.60
49413;DHT22;35493;50.276;9.372;2023-08-06T04:07:01;16.60;86.50
49413;DHT22;35493;50.276;9.372;2023-08-06T04:09:52;16.60;86.60
49413;DHT22;35493;50.276;9.372;2023-08-06T04:12:36;16.60;86.70
49413;DHT22;35493;50.276;9.372;2023-08-06T04:15:12;16.60;86.70
49413;DHT22;35493;50.276;9.372;2023-08-06T04:17:42;16.60;86.60
49413;DHT22;35493;50.276;9.372;2023-08-06T04:20:23;16.60;86.50
49413;DHT22;35493;50.276;9.372;2023-08-06T04:23:05;16.60;86.50
49413;DHT22;35493;50.276;9.372;2023-08-06T04:25:42;16.60;86.50
49413;DHT22;35493;50.276;9.372;2023-08-06T04:28:17;16.60;86.60
49413;DHT22;35493;50.276;9.372;2023-08-06T04:31:05;16.60;86.50
49413;DHT22;35493;50.276;9.372;2023-08-06T04:33:48;16.60;86.60
49413;DHT22;35493;50.276;9.372;2023-08-06T04:36:26;16.60;86.40
49413;DHT22;35493;50.276;9.372;2023-08-06T04:39:05;16.60;86.60
49413;DHT22;35493;50.276;9.372;2023-08-06T04:41:43;16.70;86.40
49413;DHT22;35493;50.276;9.372;2023-08-06T04:44:22;16.60;86.60
49413;DHT22;35493;50.276;9.372;2023-08-06T04:47:17;16.60;86.70
49413;DHT22;35493;50.276;9.372;2023-08-06T04:50:07;16.60;86.70
49413;DHT22;35493;50.276;9.372;2023-08-06T04:52:52;16.60;86.70
49413;DHT22;35493;50.276;9.372;2023-08-06T04:55:30;16.60;86.80
49413;DHT22;35493;50.276;9.372;2023-08-06T04:58:08;16.60;86.80
49413;DHT22;35493;50.276;9.372;2023-08-06T05:04:08;16.70;86.70
49413;DHT22;35493;50.276;9.372;2023-08-06T05:06:59;16.70;86.80
49413;DHT22;35493;50.276;9.372;2023-08-06T05:09:43;16.70;86.80
49413;DHT22;35493;50.276;9.372;2023-08-06T05:12:48;16.70;86.70
49413;DHT22;35493;50.276;9.372;2023-08-06T05:15:35;16.80;86.60
49413;DHT22;35493;50.276;9.372;2023-08-06T05:18:20;16.80;86.60
49413;DHT22;35493;50.276;9.372;2023-08-06T05:21:17;16.80;86.80
49413;DHT22;35493;50.276;9.372;2023-08-06T05:23:59;16.90;86.70
49413;DHT22;35493;50.276;9.372;2023-08-06T05:26:41;16.90;86.50
49413;DHT22;35493;50.276;9.372;2023-08-06T05:29:22;17.00;86.40
49413;DHT22;35493;50.276;9.372;2023-08-06T05:32:04;17.10;86.30
49413;DHT22;35493;50.276;9.372;2023-08-06T05:34:48;17.00;86.50
49413;DHT22;35493;50.276;9.372;2023-08-06T05:37:36;17.10;86.30
49413;DHT22;35493;50.276;9.372;2023-08-06T05:40:18;17.00;86.40
49413;DHT22;35493;50.276;9.372;2023-08-06T05:43:25;17.10;86.40
49413;DHT22;35493;50.276;9.372;2023-08-06T05:46:02;17.10;86.40
49413;DHT22;35493;50.276;9.372;2023-08-06T05:48:51;17.10;86.10
49413;DHT22;35493;50.276;9.372;2023-08-06T05:51:54;17.20;86.20
49413;DHT22;35493;50.276;9.372;2023-08-06T05:55:02;17.20;86.30
49413;DHT22;35493;50.276;9.372;2023-08-06T05:58:31;17.30;86.10
49413;DHT22;35493;50.276;9.372;2023-08-06T06:01:48;17.20;86.40
49413;DHT22;35493;50.276;9.372;2023-08-06T06:04:55;17.30;86.40
49413;DHT22;35493;50.276;9.372;2023-08-06T06:07:48;17.20;86.40
49413;DHT22;35493;50.276;9.372;2023-08-06T06:10:32;17.20;86.50
49413;DHT22;35493;50.276;9.372;2023-08-06T06:13:14;17.20;86.80
49413;DHT22;35493;50.276;9.372;2023-08-06T06:16:19;17.10;86.70
49413;DHT22;35493;50.276;9.372;2023-08-06T06:18:55;17.10;86.50
49413;DHT22;35493;50.276;9.372;2023-08-06T06:21:30;17.10;86.20
49413;DHT22;35493;50.276;9.372;2023-08-06T06:24:24;17.00;86.00
49413;DHT22;35493;50.276;9.372;2023-08-06T06:30:07;17.00;86.10
49413;DHT22;35493;50.276;9.372;2023-08-06T06:32:52;16.90;86.20
49413;DHT22;35493;50.276;9.372;2023-08-06T06:36:04;16.90;86.30
49413;DHT22;35493;50.276;9.372;2023-08-06T06:39:09;16.90;86.40
49413;DHT22;35493;50.276;9.372;2023-08-06T06:41:59;16.90;86.20
49413;DHT22;35493;50.276;9.372;2023-08-06T06:51:27;17.10;86.30
49413;DHT22;35493;50.276;9.372;2023-08-06T06:54:55;17.10;86.10
49413;DHT22;35493;50.276;9.372;2023-08-06T06:58:05;17.20;86.10
49413;DHT22;35493;50.276;9.372;2023-08-06T07:01:10;17.20;86.20
49413;DHT22;35493;50.276;9.372;2023-08-06T07:11:19;17.20;86.20
49413;DHT22;35493;50.276;9.372;2023-08-06T07:31:21;17.40;85.20
49413;DHT22;35493;50.276;9.372;2023-08-06T07:38:02;17.40;85.40
49413;DHT22;35493;50.276;9.372;2023-08-06T08:01:27;17.60;84.60
49413;DHT22;35493;50.276;9.372;2023-08-06T08:04:38;17.60;84.20
49413;DHT22;35493;50.276;9.372;2023-08-06T08:21:17;17.50;84.60
49413;DHT22;35493;50.276;9.372;2023-08-06T08:24:47;17.50;84.80
49413;DHT22;35493;50.276;9.372;2023-08-06T08:38:47;17.60;84.90
49413;DHT22;35493;50.276;9.372;2023-08-06T08:49:08;17.80;84.80
49413;DHT22;35493;50.276;9.372;2023-08-06T08:52:30;17.80;84.90
49413;DHT22;35493;50.276;9.372;2023-08-06T09:55:24;17.80;84.80
49413;DHT22;35493;50.276;9.372;2023-08-06T10:01:46;17.80;85.00
49413;DHT22;35493;50.276;9.372;2023-08-06T10:15:59;17.70;85.30
49413;DHT22;35493;50.276;9.372;2023-08-06T10:36:55;19.00;83.60
49413;DHT22;35493;50.276;9.372;2023-08-06T11:12:19;19.20;81.30
49413;DHT22;35493;50.276;9.372;2023-08-06T11:47:22;18.40;82.60
49413;DHT22;35493;50.276;9.372;2023-08-06T11:50:03;18.30;82.80
49413;DHT22;35493;50.276;9.372;2023-08-06T11:52:59;18.30;82.70
49413;DHT22;35493;50.276;9.372;2023-08-06T11:55:36;18.30;82.70
49413;DHT22;35493;50.276;9.372;2023-08-06T11:58:16;18.30;82.80
49413;DHT22;35493;50.276;9.372;2023-08-06T12:00:54;18.40;82.80
49413;DHT22;35493;50.276;9.372;2023-08-06T12:06:51;18.40;83.00
49413;DHT22;35493;50.276;9.372;2023-08-06T12:09:34;18.30;83.20
49413;DHT22;35493;50.276;9.372;2023-08-06T12:12:29;18.40;83.30
49413;DHT22;35493;50.276;9.372;2023-08-06T12:18:18;18.50;83.30
49413;DHT22;35493;50.276;9.372;2023-08-06T12:21:10;18.80;83.10
49413;DHT22;35493;50.276;9.372;2023-08-06T12:24:22;19.00;82.90
49413;DHT22;35493;50.276;9.372;2023-08-06T12:27:08;19.40;82.30
49413;DHT22;35493;50.276;9.372;2023-08-06T12:29:47;19.70;81.90
49413;DHT22;35493;50.276;9.372;2023-08-06T12:32:34;19.70;81.30
49413;DHT22;35493;50.276;9.372;2023-08-06T12:35:12;19.70;81.10
49413;DHT22;35493;50.276;9.372;2023-08-06T12:37:57;19.60;81.30
49413;DHT22;35493;50.276;9.372;2023-08-06T12:40:39;19.50;81.60
49413;DHT22;35493;50.276;9.372;2023-08-06T12:43:18;19.30;81.60
49413;DHT22;35493;50.276;9.372;2023-08-06T12:45:55;19.20;81.80
49413;DHT22;35493;50.276;9.372;2023-08-06T12:48:32;19.10;81.90
49413;DHT22;35493;50.276;9.372;2023-08-06T12:51:11;19.00;82.60
49413;DHT22;35493;50.276;9.372;2023-08-06T12:53:48;18.90;83.00
49413;DHT22;35493;50.276;9.372;2023-08-06T12:56:29;18.70;83.70
49413;DHT22;35493;50.276;9.372;2023-08-06T12:59:19;18.60;84.40
49413;DHT22;35493;50.276;9.372;2023-08-06T13:02:00;18.50;84.80
49413;DHT22;35493;50.276;9.372;2023-08-06T13:04:38;18.50;84.20
49413;DHT22;35493;50.276;9.372;2023-08-06T13:07:18;18.40;83.20
49413;DHT22;35493;50.276;9.372;2023-08-06T13:10:06;18.30;83.10
49413;DHT22;35493;50.276;9.372;2023-08-06T13:12:51;18.20;82.80
49413;DHT22;35493;50.276;9.372;2023-08-06T13:15:41;18.20;82.20
49413;DHT22;35493;50.276;9.372;2023-08-06T13:18:27;18.10;82.50
49413;DHT22;35493;50.276;9.372;2023-08-06T13:21:09;18.10;82.50
49413;DHT22;35493;50.276;9.372;2023-08-06T13:24:00;18.00;82.70
49413;DHT22;35493;50.276;9.372;2023-08-06T13:26:41;18.00;83.00
49413;DHT22;35493;50.276;9.372;2023-08-06T13:29:48;18.00;83.10
49413;DHT22;35493;50.276;9.372;2023-08-06T13:32:27;17.90;82.50
49413;DHT22;35493;50.276;9.372;2023-08-06T13:35:12;17.90;82.20
49413;DHT22;35493;50.276;9.372;2023-08-06T13:38:00;17.80;82.60
49413;DHT22;35493;50.276;9.372;2023-08-06T13:40:57;17.70;82.90
49413;DHT22;35493;50.276;9.372;2023-08-06T13:43:44;17.60;82.80
49413;DHT22;35493;50.276;9.372;2023-08-06T13:49:25;17.50;82.50
49413;DHT22;35493;50.276;9.372;2023-08-06T13:52:14;17.50;82.80
49413;DHT22;35493;50.276;9.372;2023-08-06T13:54:53;17.50;82.70
49413;DHT22;35493;50.276;9.372;2023-08-06T14:00:48;17.40;82.60
49413;DHT22;35493;50.276;9.372;2023-08-06T14:04:05;17.30;82.80
49413;DHT22;35493;50.276;9.372;2023-08-06T14:07:00;17.30;82.80
49413;DHT22;35493;50.276;9.372;2023-08-06T14:09:36;17.30;82.60
49413;DHT22;35493;50.276;9.372;2023-08-06T14:12:10;17.20;82.50
49413;DHT22;35493;50.276;9.372;2023-08-06T14:14:53;17.10;82.50
49413;DHT22;35493;50.276;9.372;2023-08-06T14:17:45;17.10;82.70
49413;DHT22;35493;50.276;9.372;2023-08-06T14:20:29;17.10;82.40
49413;DHT22;35493;50.276;9.372;2023-08-06T14:23:29;17.10;82.80
49413;DHT22;35493;50.276;9.372;2023-08-06T14:26:21;17.10;82.30
49413;DHT22;35493;50.276;9.372;2023-08-06T14:29:08;17.10;82.60
49413;DHT22;35493;50.276;9.372;2023-08-06T14:32:02;17.00;82.90
49413;DHT22;35493;50.276;9.372;2023-08-06T14:34:59;17.00;83.10
49413;DHT22;35493;50.276;9.372;2023-08-06T14:37:56;16.90;83.00
49413;DHT22;35493;50.276;9.372;2023-08-06T14:46:55;16.90;83.10
49413;DHT22;35493;50.276;9.372;2023-08-06T14:50:03;16.90;83.20
49413;DHT22;35493;50.276;9.372;2023-08-06T14:52:43;16.90;83.10
49413;DHT22;35493;50.276;9.372;2023-08-06T14:55:41;16.80;83.30
49413;DHT22;35493;50.276;9.372;2023-08-06T15:01:51;16.80;83.70
49413;DHT22;35493;50.276;9.372;2023-08-06T15:15:30;16.70;83.80
49413;DHT22;35493;50.276;9.372;2023-08-06T15:18:22;16.70;83.70
49413;DHT22;35493;50.276;9.372;2023-08-06T15:21:10;16.70;83.80
49413;DHT22;35493;50.276;9.372;2023-08-06T15:23:47;16.70;83.80
49413;DHT22;35493;50.276;9.372;2023-08-06T15:26:30;16.70;83.90
49413;DHT22;35493;50.276;9.372;2023-08-06T15:29:09;16.70;83.80
49413;DHT22;35493;50.276;9.372;2023-08-06T15:31:45;16.60;84.00
49413;DHT22;35493;50.276;9.372;2023-08-06T15:34:42;16.70;84.00
49413;DHT22;35493;50.276;9.372;2023-08-06T15:37:23;16.60;84.00
49413;DHT22;35493;50.276;9.372;2023-08-06T15:40:02;16.60;84.00
49413;DHT22;35493;50.276;9.372;2023-08-06T15:42:42;16.60;84.10
49413;DHT22;35493;50.276;9.372;2023-08-06T15:45:33;16.60;84.10
49413;DHT22;35493;50.276;9.372;2023-08-06T15:48:10;16.60;84.50
49413;DHT22;35493;50.276;9.372;2023-08-06T15:50:51;16.60;84.40
49413;DHT22;35493;50.276;9.372;2023-08-06T15:53:36;16.60;84.60
49413;DHT22;35493;50.276;9.372;2023-08-06T15:56:23;16.50;84.70
49413;DHT22;35493;50.276;9.372;2023-08-06T15:59:05;16.60;84.50
49413;DHT22;35493;50.276;9.372;2023-08-06T16:02:20;16.50;84.50
49413;DHT22;35493;50.276;9.372;2023-08-06T16:05:13;16.60;84.70
49413;DHT22;35493;50.276;9.372;2023-08-06T16:07:54;16.50;85.10
49413;DHT22;35493;50.276;9.372;2023-08-06T16:10:33;16.50;85.30
49413;DHT22;35493;50.276;9.372;2023-08-06T16:13:11;16.50;85.30
49413;DHT22;35493;50.276;9.372;2023-08-06T16:15:46;16.60;85.40
49413;DHT22;35493;50.276;9.372;2023-08-06T16:18:16;16.50;85.40
49413;DHT22;35493;50.276;9.372;2023-08-06T16:21:02;16.60;85.50
49413;DHT22;35493;50.276;9.372;2023-08-06T16:23:40;16.50;85.40
49413;DHT22;35493;50.276;9.372;2023-08-06T16:26:11;16.60;85.20
49413;DHT22;35493;50.276;9.372;2023-08-06T16:28:45;16.60;84.90
49413;DHT22;35493;50.276;9.372;2023-08-06T16:31:19;16.60;84.60
49413;DHT22;35493;50.276;9.372;2023-08-06T16:33:57;16.50;84.40
49413;DHT22;35493;50.276;9.372;2023-08-06T16:36:39;16.50;84.40
49413;DHT22;35493;50.276;9.372;2023-08-06T16:39:18;16.50;84.30
49413;DHT22;35493;50.276;9.372;2023-08-06T16:42:33;16.50;84.20
49413;DHT22;35493;50.276;9.372;2023-08-06T16:45:18;16.40;84.30
49413;DHT22;35493;50.276;9.372;2023-08-06T16:48:28;16.40;84.50
49413;DHT22;35493;50.276;9.372;2023-08-06T16:51:42;16.30;84.50
49413;DHT22;35493;50.276;9.372;2023-08-06T16:54:38;16.30;84.40
49413;DHT22;35493;50.276;9.372;2023-08-06T16:57:43;16.30;84.60
49413;DHT22;35493;50.276;9.372;2023-08-06T17:00:36;16.20;84.90
49413;DHT22;35493;50.276;9.372;2023-08-06T17:03:24;16.20;84.90
49413;DHT22;35493;50.276;9.372;2023-08-06T17:06:08;16.20;85.10
49413;DHT22;35493;50.276;9.372;2023-08-06T17:08:59;16.20;85.10
49413;DHT22;35493;50.276;9.372;2023-08-06T17:11:38;16.20;85.20
49413;DHT22;35493;50.276;9.372;2023-08-06T17:14:17;16.20;85.20
49413;DHT22;35493;50.276;9.372;2023-08-06T17:16:59;16.20;85.20
49413;DHT22;35493;50.276;9.372;2023-08-06T17:19:54;16.20;85.30
49413;DHT22;35493;50.276;9.372;2023-08-06T17:23:18;16.10;85.30
49413;DHT22;35493;50.276;9.372;2023-08-06T17:26:16;16.10;85.40
49413;DHT22;35493;50.276;9.372;2023-08-06T17:29:06;16.00;85.50
49413;DHT22;35493;50.276;9.372;2023-08-06T17:32:16;16.10;85.60
49413;DHT22;35493;50.276;9.372;2023-08-06T17:35:02;16.00;85.70
49413;DHT22;35493;50.276;9.372;2023-08-06T17:38:08;16.00;85.80
49413;DHT22;35493;50.276;9.372;2023-08-06T17:41:02;15.90;85.90
49413;DHT22;35493;50.276;9.372;2023-08-06T17:43:34;16.00;85.60
49413;DHT22;35493;50.276;9.372;2023-08-06T17:46:27;16.00;85.60
49413;DHT22;35493;50.276;9.372;2023-08-06T17:49:08;16.00;85.60
49413;DHT22;35493;50.276;9.372;2023-08-06T17:51:55;15.90;85.90
49413;DHT22;35493;50.276;9.372;2023-08-06T17:54:47;16.00;85.80
49413;DHT22;35493;50.276;9.372;2023-08-06T18:04:22;15.90;86.10
49413;DHT22;35493;50.276;9.372;2023-08-06T18:07:08;15.90;86.40
49413;DHT22;35493;50.276;9.372;2023-08-06T18:09:38;15.90;86.30
49413;DHT22;35493;50.276;9.372;2023-08-06T18:12:10;15.90;86.50
49413;DHT22;35493;50.276;9.372;2023-08-06T18:14:45;15.80;86.30
49413;DHT22;35493;50.276;9.372;2023-08-06T18:17:18;15.90;86.30
49413;DHT22;35493;50.276;9.372;2023-08-06T18:19:51;15.90;86.40
49413;DHT22;35493;50.276;9.372;2023-08-06T18:22:23;15.80;86.60
49413;DHT22;35493;50.276;9.372;2023-08-06T18:24:55;15.80;86.60
49413;DHT22;35493;50.276;9.372;2023-08-06T18:27:29;15.70;86.80
49413;DHT22;35493;50.276;9.372;2023-08-06T18:29:57;15.80;86.70
49413;DHT22;35493;50.276;9.372;2023-08-06T18:32:32;15.80;86.80
49413;DHT22;35493;50.276;9.372;2023-08-06T18:35:10;15.70;86.60
49413;DHT22;35493;50.276;9.372;2023-08-06T18:37:45;15.80;86.40
49413;DHT22;35493;50.276;9.372;2023-08-06T18:40:17;15.70;86.50
49413;DHT22;35493;50.276;9.372;2023-08-06T18:42:47;15.80;86.60
49413;DHT22;35493;50.276;9.372;2023-08-06T18:45:17;15.70;86.60
49413;DHT22;35493;50.276;9.372;2023-08-06T18:47:50;15.80;86.50
49413;DHT22;35493;50.276;9.372;2023-08-06T18:50:25;15.80;86.50
49413;DHT22;35493;50.276;9.372;2023-08-06T18:52:55;15.80;86.60
49413;DHT22;35493;50.276;9.372;2023-08-06T18:55:25;15.70;86.60
49413;DHT22;35493;50.276;9.372;2023-08-06T18:57:53;15.70;86.70
49413;DHT22;35493;50.276;9.372;2023-08-06T19:00:22;15.70;86.90
49413;DHT22;35493;50.276;9.372;2023-08-06T19:02:52;15.70;87.00
49413;DHT22;35493;50.276;9.372;2023-08-06T19:05:27;15.70;87.20
49413;DHT22;35493;50.276;9.372;2023-08-06T19:07:55;15.70;87.10
49413;DHT22;35493;50.276;9.372;2023-08-06T19:10:22;15.70;87.20
49413;DHT22;35493;50.276;9.372;2023-08-06T19:12:54;15.70;87.20
49413;DHT22;35493;50.276;9.372;2023-08-06T19:15:30;15.70;86.90
49413;DHT22;35493;50.276;9.372;2023-08-06T19:18:05;15.70;86.90
49413;DHT22;35493;50.276;9.372;2023-08-06T19:20:43;15.70;86.90
49413;DHT22;35493;50.276;9.372;2023-08-06T19:23:15;15.70;87.00
49413;DHT22;35493;50.276;9.372;2023-08-06T19:25:45;15.70;87.10
49413;DHT22;35493;50.276;9.372;2023-08-06T19:28:14;15.60;87.10
49413;DHT22;35493;50.276;9.372;2023-08-06T19:30:43;15.60;87.20
49413;DHT22;35493;50.276;9.372;2023-08-06T19:33:12;15.60;87.10
49413;DHT22;35493;50.276;9.372;2023-08-06T19:35:51;15.60;87.20
49413;DHT22;35493;50.276;9.372;2023-08-06T19:38:22;15.60;87.10
49413;DHT22;35493;50.276;9.372;2023-08-06T19:41:06;15.60;87.00
49413;DHT22;35493;50.276;9.372;2023-08-06T19:43:40;15.60;87.10
49413;DHT22;35493;50.276;9.372;2023-08-06T19:46:08;15.60;87.00
49413;DHT22;35493;50.276;9.372;2023-08-06T19:48:37;15.60;87.10
49413;DHT22;35493;50.276;9.372;2023-08-06T19:51:07;15.60;87.20
49413;DHT22;35493;50.276;9.372;2023-08-06T19:53:39;15.60;87.10
49413;DHT22;35493;50.276;9.372;2023-08-06T19:56:14;15.60;87.20
49413;DHT22;35493;50.276;9.372;2023-08-06T19:58:48;15.50;87.40
49413;DHT22;35493;50.276;9.372;2023-08-06T20:01:18;15.60;87.10
49413;DHT22;35493;50.276;9.372;2023-08-06T20:03:48;15.50;87.20
49413;DHT22;35493;50.276;9.372;2023-08-06T20:06:19;15.50;87.10
49413;DHT22;35493;50.276;9.372;2023-08-06T20:08:56;15.50;87.20
49413;DHT22;35493;50.276;9.372;2023-08-06T20:11:26;15.60;87.30
49413;DHT22;35493;50.276;9.372;2023-08-06T20:14:00;15.50;87.30
49413;DHT22;35493;50.276;9.372;2023-08-06T20:16:34;15.50;87.30
49413;DHT22;35493;50.276;9.372;2023-08-06T20:19:05;15.50;86.80
49413;DHT22;35493;50.276;9.372;2023-08-06T20:21:34;15.50;86.80
49413;DHT22;35493;50.276;9.372;2023-08-06T20:24:03;15.40;86.60
49413;DHT22;35493;50.276;9.372;2023-08-06T20:26:38;15.40;86.70
49413;DHT22;35493;50.276;9.372;2023-08-06T20:29:06;15.40;86.70
49413;DHT22;35493;50.276;9.372;2023-08-06T20:31:34;15.40;86.90
49413;DHT22;35493;50.276;9.372;2023-08-06T20:34:03;15.40;87.10
49413;DHT22;35493;50.276;9.372;2023-08-06T20:36:32;15.30;87.30
49413;DHT22;35493;50.276;9.372;2023-08-06T20:39:07;15.30;87.30
49413;DHT22;35493;50.276;9.372;2023-08-06T20:41:37;15.40;87.40
49413;DHT22;35493;50.276;9.372;2023-08-06T20:44:08;15.40;87.20
49413;DHT22;35493;50.276;9.372;2023-08-06T20:46:42;15.30;87.10
49413;DHT22;35493;50.276;9.372;2023-08-06T20:49:14;15.30;87.30
49413;DHT22;35493;50.276;9.372;2023-08-06T20:51:43;15.30;87.40
49413;DHT22;35493;50.276;9.372;2023-08-06T20:54:14;15.30;87.40
49413;DHT22;35493;50.276;9.372;2023-08-06T20:56:50;15.30;87.40
49413;DHT22;35493;50.276;9.372;2023-08-06T20:59:28;15.20;87.60
49413;DHT22;35493;50.276;9.372;2023-08-06T21:01:57;15.30;87.40
49413;DHT22;35493;50.276;9.372;2023-08-06T21:04:26;15.30;87.50
49413;DHT22;35493;50.276;9.372;2023-08-06T21:06:57;15.30;87.60
49413;DHT22;35493;50.276;9.372;2023-08-06T21:09:28;15.30;87.60
49413;DHT22;35493;50.276;9.372;2023-08-06T21:11:56;15.30;87.60
49413;DHT22;35493;50.276;9.372;2023-08-06T21:14:26;15.30;87.90
49413;DHT22;35493;50.276;9.372;2023-08-06T21:16:54;15.20;87.90
49413;DHT22;35493;50.276;9.372;2023-08-06T21:19:21;15.20;87.70
49413;DHT22;35493;50.276;9.372;2023-08-06T21:21:51;15.20;87.80
49413;DHT22;35493;50.276;9.372;2023-08-06T21:24:26;15.20;87.80
49413;DHT22;35493;50.276;9.372;2023-08-06T21:27:03;15.20;87.80
49413;DHT22;35493;50.276;9.372;2023-08-06T21:29:36;15.20;87.70
49413;DHT22;35493;50.276;9.372;2023-08-06T21:32:09;15.20;87.60
49413;DHT22;35493;50.276;9.372;2023-08-06T21:34:44;15.20;87.80
49413;DHT22;35493;50.276;9.372;2023-08-06T21:37:17;15.20;87.80
49413;DHT22;35493;50.276;9.372;2023-08-06T21:39:45;15.10;87.80
49413;DHT22;35493;50.276;9.372;2023-08-06T21:42:19;15.10;87.70
49413;DHT22;35493;50.276;9.372;2023-08-06T21:44:48;15.10;87.90
49413;DHT22;35493;50.276;9.372;2023-08-06T21:47:18;15.10;87.90